sensor_id;sensor_type;location;lat;lon;timestamp;P1;durP1;ratioP1;P2;durP2;ratioP2
77191;SDS011;66172;48.526;8.078;2023-06-14T00:02:07;7.97;;;3.60;;
77191;SDS011;66172;48.526;8.078;2023-06-14T00:04:34;7.70;;;3.17;;
77191;SDS011;66172;48.526;8.078;2023-06-14T00:07:01;6.82;;;3.20;;
77191;SDS011;66172;48.526;8.078;2023-06-14T00:09:27;6.93;;;3.35;;
77191;SDS011;66172;48.526;8.078;2023-06-14T00:11:53;10.43;;;3.50;;
77191;SDS011;66172;48.526;8.078;2023-06-14T00:14:19;6.60;;;3.67;;
77191;SDS011;66172;48.526;8.078;2023-06-14T00:16:45;9.85;;;3.78;;
77191;SDS011;66172;48.526;8.078;2023-06-14T00:19:11;6.78;;;3.30;;
77191;SDS011;66172;48.526;8.078;2023-06-14T00:21:37;8.37;;;3.47;;
77191;SDS011;66172;48.526;8.078;2023-06-14T00:24:04;10.27;;;3.63;;
77191;SDS011;66172;48.526;8.078;2023-06-14T00:26:30;8.18;;;3.47;;
77191;SDS011;66172;48.526;8.078;2023-06-14T00:28:56;7.13;;;3.17;;
77191;SDS011;66172;48.526;8.078;2023-06-14T00:31:22;7.32;;;3.53;;
77191;SDS011;66172;48.526;8.078;2023-06-14T00:33:48;8.13;;;3.60;;
77191;SDS011;66172;48.526;8.078;2023-06-14T00:36:14;9.13;;;4.03;;
77191;SDS011;66172;48.526;8.078;2023-06-14T00:38:40;8.05;;;3.42;;
77191;SDS011;66172;48.526;8.078;2023-06-14T00:41:06;6.80;;;3.20;;
77191;SDS011;66172;48.526;8.078;2023-06-14T00:43:32;7.43;;;3.43;;
77191;SDS011;66172;48.526;8.078;2023-06-14T00:46:00;8.27;;;3.47;;
77191;SDS011;66172;48.526;8.078;2023-06-14T00:48:26;7.68;;;3.58;;
77191;SDS011;66172;48.526;8.078;2023-06-14T00:50:53;8.35;;;3.80;;
77191;SDS011;66172;48.526;8.078;2023-06-14T00:53:20;10.02;;;3.60;;
77191;SDS011;66172;48.526;8.078;2023-06-14T00:55:48;7.13;;;3.50;;
77191;SDS011;66172;48.526;8.078;2023-06-14T00:58:14;9.20;;;3.50;;
77191;SDS011;66172;48.526;8.078;2023-06-14T01:00:40;7.60;;;3.70;;
77191;SDS011;66172;48.526;8.078;2023-06-14T01:03:06;8.80;;;3.63;;
77191;SDS011;66172;48.526;8.078;2023-06-14T01:05:33;9.05;;;3.83;;
77191;SDS011;66172;48.526;8.078;2023-06-14T01:08:11;8.57;;;3.97;;
77191;SDS011;66172;48.526;8.078;2023-06-14T01:11:02;9.48;;;3.55;;
77191;SDS011;66172;48.526;8.078;2023-06-14T01:13:37;9.55;;;3.60;;
77191;SDS011;66172;48.526;8.078;2023-06-14T01:16:09;9.75;;;3.45;;
77191;SDS011;66172;48.526;8.078;2023-06-14T01:18:35;6.80;;;3.22;;
77191;SDS011;66172;48.526;8.078;2023-06-14T01:21:01;6.47;;;3.03;;
77191;SDS011;66172;48.526;8.078;2023-06-14T01:23:31;7.60;;;3.38;;
77191;SDS011;66172;48.526;8.078;2023-06-14T01:25:58;8.45;;;3.63;;
77191;SDS011;66172;48.526;8.078;2023-06-14T01:28:25;7.60;;;3.35;;
77191;SDS011;66172;48.526;8.078;2023-06-14T01:30:58;7.38;;;3.25;;
77191;SDS011;66172;48.526;8.078;2023-06-14T01:33:28;6.57;;;3.30;;
77191;SDS011;66172;48.526;8.078;2023-06-14T01:35:56;8.07;;;3.17;;
77191;SDS011;66172;48.526;8.078;2023-06-14T01:38:24;7.95;;;3.15;;
77191;SDS011;66172;48.526;8.078;2023-06-14T01:40:51;6.85;;;3.55;;
77191;SDS011;66172;48.526;8.078;2023-06-14T01:43:19;6.88;;;3.10;;
77191;SDS011;66172;48.526;8.078;2023-06-14T01:45:46;6.63;;;3.30;;
77191;SDS011;66172;48.526;8.078;2023-06-14T01:48:17;7.05;;;2.92;;
77191;SDS011;66172;48.526;8.078;2023-06-14T01:50:43;8.55;;;3.20;;
77191;SDS011;66172;48.526;8.078;2023-06-14T01:53:09;7.75;;;3.15;;
77191;SDS011;66172;48.526;8.078;2023-06-14T01:55:36;8.50;;;3.30;;
77191;SDS011;66172;48.526;8.078;2023-06-14T01:58:03;7.00;;;3.30;;
77191;SDS011;66172;48.526;8.078;2023-06-14T02:00:30;8.93;;;2.90;;
77191;SDS011;66172;48.526;8.078;2023-06-14T02:02:56;5.90;;;2.90;;
77191;SDS011;66172;48.526;8.078;2023-06-14T02:05:22;11.18;;;3.70;;
77191;SDS011;66172;48.526;8.078;2023-06-14T02:07:48;8.40;;;3.37;;
77191;SDS011;66172;48.526;8.078;2023-06-14T02:10:14;9.02;;;3.55;;
77191;SDS011;66172;48.526;8.078;2023-06-14T02:12:40;6.90;;;3.50;;
77191;SDS011;66172;48.526;8.078;2023-06-14T02:15:06;7.28;;;3.60;;
77191;SDS011;66172;48.526;8.078;2023-06-14T02:17:33;8.30;;;3.27;;
77191;SDS011;66172;48.526;8.078;2023-06-14T02:20:00;6.90;;;3.10;;
77191;SDS011;66172;48.526;8.078;2023-06-14T02:22:26;7.68;;;3.50;;
77191;SDS011;66172;48.526;8.078;2023-06-14T02:24:52;7.43;;;3.30;;
77191;SDS011;66172;48.526;8.078;2023-06-14T02:27:18;7.13;;;3.57;;
77191;SDS011;66172;48.526;8.078;2023-06-14T02:29:44;8.73;;;3.40;;
77191;SDS011;66172;48.526;8.078;2023-06-14T02:32:10;7.85;;;3.28;;
77191;SDS011;66172;48.526;8.078;2023-06-14T02:34:36;5.75;;;2.78;;
77191;SDS011;66172;48.526;8.078;2023-06-14T02:37:02;7.63;;;3.38;;
77191;SDS011;66172;48.526;8.078;2023-06-14T02:39:31;8.23;;;3.60;;
77191;SDS011;66172;48.526;8.078;2023-06-14T02:41:56;7.20;;;3.28;;
77191;SDS011;66172;48.526;8.078;2023-06-14T02:44:26;7.88;;;3.42;;
77191;SDS011;66172;48.526;8.078;2023-06-14T02:46:53;7.00;;;3.30;;
77191;SDS011;66172;48.526;8.078;2023-06-14T02:49:21;6.33;;;3.10;;
77191;SDS011;66172;48.526;8.078;2023-06-14T02:51:48;7.70;;;3.15;;
77191;SDS011;66172;48.526;8.078;2023-06-14T02:54:14;7.35;;;3.30;;
77191;SDS011;66172;48.526;8.078;2023-06-14T02:56:39;7.65;;;3.53;;
77191;SDS011;66172;48.526;8.078;2023-06-14T02:59:06;7.13;;;3.10;;
77191;SDS011;66172;48.526;8.078;2023-06-14T03:01:32;7.13;;;3.10;;
77191;SDS011;66172;48.526;8.078;2023-06-14T03:04:09;8.18;;;3.00;;
77191;SDS011;66172;48.526;8.078;2023-06-14T03:06:35;7.32;;;2.97;;
77191;SDS011;66172;48.526;8.078;2023-06-14T03:09:02;7.47;;;3.70;;
77191;SDS011;66172;48.526;8.078;2023-06-14T03:11:31;7.37;;;3.13;;
77191;SDS011;66172;48.526;8.078;2023-06-14T03:13:57;7.30;;;3.53;;
77191;SDS011;66172;48.526;8.078;2023-06-14T03:16:23;8.60;;;3.25;;
77191;SDS011;66172;48.526;8.078;2023-06-14T03:18:52;7.85;;;3.45;;
77191;SDS011;66172;48.526;8.078;2023-06-14T03:21:20;5.60;;;2.72;;
77191;SDS011;66172;48.526;8.078;2023-06-14T03:23:47;6.33;;;3.10;;
77191;SDS011;66172;48.526;8.078;2023-06-14T03:26:14;8.82;;;3.25;;
77191;SDS011;66172;48.526;8.078;2023-06-14T03:28:43;8.70;;;3.15;;
77191;SDS011;66172;48.526;8.078;2023-06-14T03:31:11;8.02;;;3.03;;
77191;SDS011;66172;48.526;8.078;2023-06-14T03:33:37;9.90;;;4.47;;
77191;SDS011;66172;48.526;8.078;2023-06-14T03:36:04;7.43;;;3.23;;
77191;SDS011;66172;48.526;8.078;2023-06-14T03:38:30;9.20;;;3.35;;
77191;SDS011;66172;48.526;8.078;2023-06-14T03:40:56;5.95;;;2.90;;
77191;SDS011;66172;48.526;8.078;2023-06-14T03:43:22;7.45;;;3.00;;
77191;SDS011;66172;48.526;8.078;2023-06-14T03:45:48;6.87;;;3.10;;
77191;SDS011;66172;48.526;8.078;2023-06-14T03:48:14;7.90;;;2.90;;
77191;SDS011;66172;48.526;8.078;2023-06-14T03:50:40;7.35;;;3.10;;
77191;SDS011;66172;48.526;8.078;2023-06-14T03:53:08;9.43;;;3.60;;
77191;SDS011;66172;48.526;8.078;2023-06-14T03:55:34;6.53;;;3.10;;
77191;SDS011;66172;48.526;8.078;2023-06-14T03:58:00;9.10;;;3.50;;
77191;SDS011;66172;48.526;8.078;2023-06-14T04:00:26;8.73;;;3.00;;
77191;SDS011;66172;48.526;8.078;2023-06-14T04:02:52;7.72;;;3.13;;
77191;SDS011;66172;48.526;8.078;2023-06-14T04:05:20;7.25;;;2.95;;
77191;SDS011;66172;48.526;8.078;2023-06-14T04:07:45;6.80;;;3.03;;
77191;SDS011;66172;48.526;8.078;2023-06-14T04:10:14;8.68;;;3.42;;
77191;SDS011;66172;48.526;8.078;2023-06-14T04:12:41;6.88;;;2.67;;
77191;SDS011;66172;48.526;8.078;2023-06-14T04:15:08;6.93;;;2.72;;
77191;SDS011;66172;48.526;8.078;2023-06-14T04:17:34;7.83;;;3.17;;
77191;SDS011;66172;48.526;8.078;2023-06-14T04:20:02;6.43;;;3.20;;
77191;SDS011;66172;48.526;8.078;2023-06-14T04:22:30;9.18;;;3.30;;
77191;SDS011;66172;48.526;8.078;2023-06-14T04:24:56;7.38;;;3.22;;
77191;SDS011;66172;48.526;8.078;2023-06-14T04:27:23;9.52;;;3.60;;
77191;SDS011;66172;48.526;8.078;2023-06-14T04:29:51;10.30;;;3.10;;
77191;SDS011;66172;48.526;8.078;2023-06-14T04:32:27;6.68;;;3.30;;
77191;SDS011;66172;48.526;8.078;2023-06-14T04:34:55;6.40;;;2.90;;
77191;SDS011;66172;48.526;8.078;2023-06-14T04:37:21;7.03;;;3.40;;
77191;SDS011;66172;48.526;8.078;2023-06-14T04:39:48;8.45;;;3.35;;
77191;SDS011;66172;48.526;8.078;2023-06-14T04:42:14;7.80;;;3.40;;
77191;SDS011;66172;48.526;8.078;2023-06-14T04:44:41;7.65;;;3.60;;
77191;SDS011;66172;48.526;8.078;2023-06-14T04:47:07;12.45;;;3.45;;
77191;SDS011;66172;48.526;8.078;2023-06-14T04:49:33;7.85;;;3.70;;
77191;SDS011;66172;48.526;8.078;2023-06-14T04:52:00;7.57;;;3.28;;
77191;SDS011;66172;48.526;8.078;2023-06-14T04:54:28;9.37;;;3.53;;
77191;SDS011;66172;48.526;8.078;2023-06-14T04:56:57;7.93;;;3.50;;
77191;SDS011;66172;48.526;8.078;2023-06-14T04:59:22;7.07;;;3.20;;
77191;SDS011;66172;48.526;8.078;2023-06-14T05:01:49;6.95;;;3.20;;
77191;SDS011;66172;48.526;8.078;2023-06-14T05:04:15;8.00;;;3.17;;
77191;SDS011;66172;48.526;8.078;2023-06-14T05:06:42;7.50;;;3.35;;
77191;SDS011;66172;48.526;8.078;2023-06-14T05:09:14;7.43;;;3.42;;
77191;SDS011;66172;48.526;8.078;2023-06-14T05:11:43;8.13;;;3.50;;
77191;SDS011;66172;48.526;8.078;2023-06-14T05:14:10;12.57;;;4.10;;
77191;SDS011;66172;48.526;8.078;2023-06-14T05:16:37;10.87;;;3.40;;
77191;SDS011;66172;48.526;8.078;2023-06-14T05:19:03;8.30;;;3.47;;
77191;SDS011;66172;48.526;8.078;2023-06-14T05:21:30;7.30;;;3.55;;
77191;SDS011;66172;48.526;8.078;2023-06-14T05:23:59;11.07;;;3.53;;
77191;SDS011;66172;48.526;8.078;2023-06-14T05:26:25;7.75;;;3.50;;
77191;SDS011;66172;48.526;8.078;2023-06-14T05:28:54;7.60;;;3.63;;
77191;SDS011;66172;48.526;8.078;2023-06-14T05:31:22;7.07;;;3.65;;
77191;SDS011;66172;48.526;8.078;2023-06-14T05:33:49;7.78;;;3.58;;
77191;SDS011;66172;48.526;8.078;2023-06-14T05:36:16;9.25;;;3.47;;
77191;SDS011;66172;48.526;8.078;2023-06-14T05:38:42;7.28;;;3.28;;
77191;SDS011;66172;48.526;8.078;2023-06-14T05:41:08;8.17;;;3.47;;
77191;SDS011;66172;48.526;8.078;2023-06-14T05:43:33;6.78;;;3.63;;
77191;SDS011;66172;48.526;8.078;2023-06-14T05:45:59;9.18;;;3.60;;
77191;SDS011;66172;48.526;8.078;2023-06-14T05:48:25;7.63;;;3.13;;
77191;SDS011;66172;48.526;8.078;2023-06-14T05:50:51;7.07;;;3.10;;
77191;SDS011;66172;48.526;8.078;2023-06-14T05:53:17;7.72;;;3.55;;
77191;SDS011;66172;48.526;8.078;2023-06-14T05:55:43;8.47;;;3.73;;
77191;SDS011;66172;48.526;8.078;2023-06-14T05:58:09;7.93;;;3.55;;
77191;SDS011;66172;48.526;8.078;2023-06-14T06:00:36;7.63;;;3.55;;
77191;SDS011;66172;48.526;8.078;2023-06-14T06:03:02;6.93;;;3.63;;
77191;SDS011;66172;48.526;8.078;2023-06-14T06:05:28;7.40;;;3.83;;
77191;SDS011;66172;48.526;8.078;2023-06-14T06:07:53;8.68;;;3.67;;
77191;SDS011;66172;48.526;8.078;2023-06-14T06:10:20;9.98;;;4.07;;
77191;SDS011;66172;48.526;8.078;2023-06-14T06:12:46;11.48;;;4.25;;
77191;SDS011;66172;48.526;8.078;2023-06-14T06:15:12;8.83;;;4.03;;
77191;SDS011;66172;48.526;8.078;2023-06-14T06:17:38;8.55;;;4.15;;
77191;SDS011;66172;48.526;8.078;2023-06-14T06:20:05;8.38;;;3.72;;
77191;SDS011;66172;48.526;8.078;2023-06-14T06:22:34;8.40;;;3.70;;
77191;SDS011;66172;48.526;8.078;2023-06-14T06:25:00;7.75;;;4.05;;
77191;SDS011;66172;48.526;8.078;2023-06-14T06:27:26;8.50;;;4.20;;
77191;SDS011;66172;48.526;8.078;2023-06-14T06:29:51;9.70;;;4.30;;
77191;SDS011;66172;48.526;8.078;2023-06-14T06:32:18;8.27;;;4.13;;
77191;SDS011;66172;48.526;8.078;2023-06-14T06:34:44;8.15;;;4.43;;
77191;SDS011;66172;48.526;8.078;2023-06-14T06:37:10;6.70;;;4.47;;
77191;SDS011;66172;48.526;8.078;2023-06-14T06:39:36;8.10;;;4.47;;
77191;SDS011;66172;48.526;8.078;2023-06-14T06:42:02;9.50;;;4.50;;
77191;SDS011;66172;48.526;8.078;2023-06-14T06:44:28;8.48;;;4.90;;
77191;SDS011;66172;48.526;8.078;2023-06-14T06:46:54;8.63;;;4.60;;
77191;SDS011;66172;48.526;8.078;2023-06-14T06:49:20;7.20;;;4.63;;
77191;SDS011;66172;48.526;8.078;2023-06-14T06:51:58;10.38;;;4.80;;
77191;SDS011;66172;48.526;8.078;2023-06-14T06:54:26;10.07;;;5.18;;
77191;SDS011;66172;48.526;8.078;2023-06-14T06:56:52;9.57;;;5.03;;
77191;SDS011;66172;48.526;8.078;2023-06-14T06:59:18;12.93;;;5.20;;
77191;SDS011;66172;48.526;8.078;2023-06-14T07:01:44;11.18;;;5.10;;
77191;SDS011;66172;48.526;8.078;2023-06-14T07:04:10;13.82;;;5.10;;
77191;SDS011;66172;48.526;8.078;2023-06-14T07:06:36;10.50;;;5.00;;
77191;SDS011;66172;48.526;8.078;2023-06-14T07:09:03;10.55;;;5.35;;
77191;SDS011;66172;48.526;8.078;2023-06-14T07:11:30;11.13;;;5.45;;
77191;SDS011;66172;48.526;8.078;2023-06-14T07:13:56;11.85;;;5.53;;
77191;SDS011;66172;48.526;8.078;2023-06-14T07:16:22;12.17;;;5.90;;
77191;SDS011;66172;48.526;8.078;2023-06-14T07:18:49;10.75;;;5.93;;
77191;SDS011;66172;48.526;8.078;2023-06-14T07:21:14;12.93;;;6.00;;
77191;SDS011;66172;48.526;8.078;2023-06-14T07:23:40;9.90;;;5.63;;
77191;SDS011;66172;48.526;8.078;2023-06-14T07:26:06;10.67;;;5.50;;
77191;SDS011;66172;48.526;8.078;2023-06-14T07:28:32;9.43;;;5.70;;
77191;SDS011;66172;48.526;8.078;2023-06-14T07:30:58;12.68;;;6.30;;
77191;SDS011;66172;48.526;8.078;2023-06-14T07:33:24;10.30;;;5.67;;
77191;SDS011;66172;48.526;8.078;2023-06-14T07:35:50;10.98;;;5.88;;
77191;SDS011;66172;48.526;8.078;2023-06-14T07:38:16;8.82;;;5.18;;
77191;SDS011;66172;48.526;8.078;2023-06-14T07:40:42;8.73;;;5.93;;
77191;SDS011;66172;48.526;8.078;2023-06-14T07:43:07;11.57;;;5.10;;
77191;SDS011;66172;48.526;8.078;2023-06-14T07:45:33;10.98;;;5.80;;
77191;SDS011;66172;48.526;8.078;2023-06-14T07:47:59;9.93;;;5.68;;
77191;SDS011;66172;48.526;8.078;2023-06-14T07:50:25;9.57;;;4.80;;
77191;SDS011;66172;48.526;8.078;2023-06-14T07:52:51;10.30;;;5.30;;
77191;SDS011;66172;48.526;8.078;2023-06-14T07:55:17;13.50;;;6.13;;
77191;SDS011;66172;48.526;8.078;2023-06-14T07:57:43;9.57;;;4.80;;
77191;SDS011;66172;48.526;8.078;2023-06-14T08:00:09;8.77;;;5.53;;
77191;SDS011;66172;48.526;8.078;2023-06-14T08:02:43;8.83;;;4.87;;
77191;SDS011;66172;48.526;8.078;2023-06-14T08:05:10;8.35;;;4.90;;
77191;SDS011;66172;48.526;8.078;2023-06-14T08:07:37;7.30;;;4.60;;
77191;SDS011;66172;48.526;8.078;2023-06-14T08:10:05;8.77;;;4.68;;
77191;SDS011;66172;48.526;8.078;2023-06-14T08:12:32;7.80;;;4.82;;
77191;SDS011;66172;48.526;8.078;2023-06-14T08:14:58;6.53;;;4.50;;
77191;SDS011;66172;48.526;8.078;2023-06-14T08:17:24;6.40;;;4.80;;
77191;SDS011;66172;48.526;8.078;2023-06-14T08:19:50;8.18;;;4.68;;
77191;SDS011;66172;48.526;8.078;2023-06-14T08:22:16;7.00;;;4.90;;
77191;SDS011;66172;48.526;8.078;2023-06-14T08:24:43;7.40;;;4.70;;
77191;SDS011;66172;48.526;8.078;2023-06-14T08:27:10;8.35;;;4.43;;
77191;SDS011;66172;48.526;8.078;2023-06-14T08:29:36;8.13;;;4.90;;
77191;SDS011;66172;48.526;8.078;2023-06-14T08:32:04;10.20;;;4.40;;
77191;SDS011;66172;48.526;8.078;2023-06-14T08:34:30;7.47;;;4.10;;
77191;SDS011;66172;48.526;8.078;2023-06-14T08:36:56;7.57;;;4.87;;
77191;SDS011;66172;48.526;8.078;2023-06-14T08:39:22;7.68;;;4.45;;
77191;SDS011;66172;48.526;8.078;2023-06-14T08:41:48;10.50;;;4.60;;
77191;SDS011;66172;48.526;8.078;2023-06-14T08:44:16;8.15;;;4.57;;
77191;SDS011;66172;48.526;8.078;2023-06-14T08:46:43;8.53;;;4.63;;
77191;SDS011;66172;48.526;8.078;2023-06-14T08:49:12;7.72;;;4.50;;
77191;SDS011;66172;48.526;8.078;2023-06-14T08:51:38;13.98;;;4.90;;
77191;SDS011;66172;48.526;8.078;2023-06-14T08:54:06;8.77;;;5.03;;
77191;SDS011;66172;48.526;8.078;2023-06-14T08:56:32;18.02;;;4.65;;
77191;SDS011;66172;48.526;8.078;2023-06-14T08:58:59;9.73;;;4.47;;
77191;SDS011;66172;48.526;8.078;2023-06-14T09:01:33;8.57;;;4.80;;
77191;SDS011;66172;48.526;8.078;2023-06-14T09:04:00;9.95;;;4.95;;
77191;SDS011;66172;48.526;8.078;2023-06-14T09:06:26;8.73;;;4.70;;
77191;SDS011;66172;48.526;8.078;2023-06-14T09:08:54;8.20;;;4.55;;
77191;SDS011;66172;48.526;8.078;2023-06-14T09:11:22;7.97;;;4.73;;
77191;SDS011;66172;48.526;8.078;2023-06-14T09:13:49;8.55;;;4.70;;
77191;SDS011;66172;48.526;8.078;2023-06-14T09:16:15;8.65;;;4.80;;
77191;SDS011;66172;48.526;8.078;2023-06-14T09:18:43;10.77;;;4.50;;
77191;SDS011;66172;48.526;8.078;2023-06-14T09:21:13;10.02;;;4.78;;
77191;SDS011;66172;48.526;8.078;2023-06-14T09:23:41;7.80;;;4.67;;
77191;SDS011;66172;48.526;8.078;2023-06-14T09:26:15;7.72;;;4.88;;
77191;SDS011;66172;48.526;8.078;2023-06-14T09:28:43;10.13;;;5.68;;
77191;SDS011;66172;48.526;8.078;2023-06-14T09:31:10;9.77;;;4.72;;
77191;SDS011;66172;48.526;8.078;2023-06-14T09:33:37;9.98;;;4.60;;
77191;SDS011;66172;48.526;8.078;2023-06-14T09:36:04;9.20;;;5.00;;
77191;SDS011;66172;48.526;8.078;2023-06-14T09:38:35;11.18;;;5.32;;
77191;SDS011;66172;48.526;8.078;2023-06-14T09:41:01;9.55;;;5.20;;
77191;SDS011;66172;48.526;8.078;2023-06-14T09:43:29;11.32;;;5.00;;
77191;SDS011;66172;48.526;8.078;2023-06-14T09:46:02;9.53;;;4.73;;
77191;SDS011;66172;48.526;8.078;2023-06-14T09:48:29;8.93;;;4.70;;
77191;SDS011;66172;48.526;8.078;2023-06-14T09:50:55;10.02;;;4.82;;
77191;SDS011;66172;48.526;8.078;2023-06-14T09:53:23;7.60;;;4.72;;
77191;SDS011;66172;48.526;8.078;2023-06-14T09:55:50;7.28;;;4.38;;
77191;SDS011;66172;48.526;8.078;2023-06-14T09:58:20;8.33;;;5.03;;
77191;SDS011;66172;48.526;8.078;2023-06-14T10:00:48;7.03;;;4.68;;
77191;SDS011;66172;48.526;8.078;2023-06-14T10:03:19;10.30;;;4.70;;
77191;SDS011;66172;48.526;8.078;2023-06-14T10:05:49;7.95;;;4.47;;
77191;SDS011;66172;48.526;8.078;2023-06-14T10:08:17;9.23;;;4.72;;
77191;SDS011;66172;48.526;8.078;2023-06-14T10:10:45;12.90;;;4.90;;
77191;SDS011;66172;48.526;8.078;2023-06-14T10:13:11;9.23;;;4.90;;
77191;SDS011;66172;48.526;8.078;2023-06-14T10:15:51;10.73;;;4.60;;
77191;SDS011;66172;48.526;8.078;2023-06-14T10:18:31;10.48;;;4.65;;
77191;SDS011;66172;48.526;8.078;2023-06-14T10:23:49;10.43;;;4.70;;
77191;SDS011;66172;48.526;8.078;2023-06-14T10:26:17;9.77;;;4.75;;
77191;SDS011;66172;48.526;8.078;2023-06-14T10:31:42;9.77;;;4.57;;
77191;SDS011;66172;48.526;8.078;2023-06-14T10:34:09;11.35;;;4.57;;
77191;SDS011;66172;48.526;8.078;2023-06-14T10:36:36;10.03;;;5.10;;
77191;SDS011;66172;48.526;8.078;2023-06-14T10:41:50;8.68;;;4.70;;
77191;SDS011;66172;48.526;8.078;2023-06-14T10:46:47;8.83;;;4.10;;
77191;SDS011;66172;48.526;8.078;2023-06-14T10:49:38;11.75;;;4.78;;
77191;SDS011;66172;48.526;8.078;2023-06-14T10:52:11;9.65;;;4.20;;
77191;SDS011;66172;48.526;8.078;2023-06-14T10:57:48;11.10;;;4.25;;
77191;SDS011;66172;48.526;8.078;2023-06-14T11:00:22;16.50;;;4.23;;
77191;SDS011;66172;48.526;8.078;2023-06-14T11:05:23;11.63;;;4.85;;
77191;SDS011;66172;48.526;8.078;2023-06-14T11:10:38;10.90;;;4.60;;
77191;SDS011;66172;48.526;8.078;2023-06-14T11:13:06;9.10;;;4.23;;
77191;SDS011;66172;48.526;8.078;2023-06-14T11:15:34;11.63;;;4.13;;
77191;SDS011;66172;48.526;8.078;2023-06-14T11:18:01;11.25;;;4.07;;
77191;SDS011;66172;48.526;8.078;2023-06-14T11:20:30;11.65;;;4.13;;
77191;SDS011;66172;48.526;8.078;2023-06-14T11:22:57;8.20;;;4.05;;
77191;SDS011;66172;48.526;8.078;2023-06-14T11:25:23;12.43;;;4.10;;
77191;SDS011;66172;48.526;8.078;2023-06-14T11:27:50;9.52;;;3.95;;
77191;SDS011;66172;48.526;8.078;2023-06-14T11:30:16;10.30;;;3.63;;
77191;SDS011;66172;48.526;8.078;2023-06-14T11:32:45;7.53;;;4.00;;
77191;SDS011;66172;48.526;8.078;2023-06-14T11:35:16;10.25;;;3.92;;
77191;SDS011;66172;48.526;8.078;2023-06-14T11:37:42;11.57;;;3.97;;
77191;SDS011;66172;48.526;8.078;2023-06-14T11:40:10;7.60;;;3.63;;
77191;SDS011;66172;48.526;8.078;2023-06-14T11:42:37;6.72;;;3.70;;
77191;SDS011;66172;48.526;8.078;2023-06-14T11:45:09;18.13;;;3.83;;
77191;SDS011;66172;48.526;8.078;2023-06-14T11:47:36;12.07;;;3.97;;
77191;SDS011;66172;48.526;8.078;2023-06-14T11:50:04;11.50;;;3.90;;
77191;SDS011;66172;48.526;8.078;2023-06-14T11:52:35;8.38;;;4.10;;
77191;SDS011;66172;48.526;8.078;2023-06-14T11:55:02;12.07;;;4.20;;
77191;SDS011;66172;48.526;8.078;2023-06-14T11:57:33;9.15;;;3.92;;
77191;SDS011;66172;48.526;8.078;2023-06-14T12:00:02;8.13;;;4.15;;
77191;SDS011;66172;48.526;8.078;2023-06-14T12:02:32;8.73;;;4.00;;
77191;SDS011;66172;48.526;8.078;2023-06-14T12:05:03;12.55;;;4.03;;
77191;SDS011;66172;48.526;8.078;2023-06-14T12:07:30;10.55;;;4.00;;
77191;SDS011;66172;48.526;8.078;2023-06-14T12:12:25;8.80;;;4.07;;
77191;SDS011;66172;48.526;8.078;2023-06-14T12:14:52;9.57;;;3.92;;
77191;SDS011;66172;48.526;8.078;2023-06-14T12:17:19;13.70;;;4.03;;
77191;SDS011;66172;48.526;8.078;2023-06-14T12:19:45;8.75;;;4.25;;
77191;SDS011;66172;48.526;8.078;2023-06-14T12:22:12;8.75;;;3.90;;
77191;SDS011;66172;48.526;8.078;2023-06-14T12:24:39;10.93;;;4.20;;
77191;SDS011;66172;48.526;8.078;2023-06-14T12:27:08;7.93;;;4.10;;
77191;SDS011;66172;48.526;8.078;2023-06-14T12:29:34;7.65;;;4.03;;
77191;SDS011;66172;48.526;8.078;2023-06-14T12:32:01;7.70;;;4.00;;
77191;SDS011;66172;48.526;8.078;2023-06-14T12:34:27;11.47;;;3.77;;
77191;SDS011;66172;48.526;8.078;2023-06-14T12:36:53;7.15;;;4.00;;
77191;SDS011;66172;48.526;8.078;2023-06-14T12:39:20;9.55;;;3.60;;
77191;SDS011;66172;48.526;8.078;2023-06-14T12:41:46;10.68;;;3.95;;
77191;SDS011;66172;48.526;8.078;2023-06-14T12:44:13;11.18;;;4.07;;
77191;SDS011;66172;48.526;8.078;2023-06-14T12:46:39;10.23;;;3.80;;
77191;SDS011;66172;48.526;8.078;2023-06-14T12:49:08;10.55;;;4.10;;
77191;SDS011;66172;48.526;8.078;2023-06-14T12:51:34;7.10;;;3.50;;
77191;SDS011;66172;48.526;8.078;2023-06-14T12:54:00;9.00;;;3.90;;
77191;SDS011;66172;48.526;8.078;2023-06-14T12:56:26;8.43;;;4.28;;
77191;SDS011;66172;48.526;8.078;2023-06-14T12:58:52;8.40;;;4.10;;
77191;SDS011;66172;48.526;8.078;2023-06-14T13:01:18;9.23;;;3.70;;
77191;SDS011;66172;48.526;8.078;2023-06-14T13:03:46;12.18;;;3.70;;
77191;SDS011;66172;48.526;8.078;2023-06-14T13:06:12;8.95;;;3.80;;
77191;SDS011;66172;48.526;8.078;2023-06-14T13:08:38;8.60;;;3.80;;
77191;SDS011;66172;48.526;8.078;2023-06-14T13:11:04;6.72;;;3.78;;
77191;SDS011;66172;48.526;8.078;2023-06-14T13:13:30;9.68;;;3.53;;
77191;SDS011;66172;48.526;8.078;2023-06-14T13:15:56;8.60;;;3.92;;
77191;SDS011;66172;48.526;8.078;2023-06-14T13:18:22;9.60;;;3.87;;
77191;SDS011;66172;48.526;8.078;2023-06-14T13:20:48;9.25;;;4.50;;
77191;SDS011;66172;48.526;8.078;2023-06-14T13:23:15;7.75;;;3.75;;
77191;SDS011;66172;48.526;8.078;2023-06-14T13:25:41;8.70;;;3.90;;
77191;SDS011;66172;48.526;8.078;2023-06-14T13:28:07;7.80;;;3.90;;
77191;SDS011;66172;48.526;8.078;2023-06-14T13:30:34;8.38;;;3.85;;
77191;SDS011;66172;48.526;8.078;2023-06-14T13:33:00;6.82;;;3.60;;
77191;SDS011;66172;48.526;8.078;2023-06-14T13:35:26;9.15;;;3.90;;
77191;SDS011;66172;48.526;8.078;2023-06-14T13:37:52;8.33;;;3.73;;
77191;SDS011;66172;48.526;8.078;2023-06-14T13:40:18;10.18;;;4.50;;
77191;SDS011;66172;48.526;8.078;2023-06-14T13:42:45;7.50;;;3.78;;
77191;SDS011;66172;48.526;8.078;2023-06-14T13:45:12;8.00;;;3.83;;
77191;SDS011;66172;48.526;8.078;2023-06-14T13:47:38;14.83;;;4.17;;
77191;SDS011;66172;48.526;8.078;2023-06-14T13:50:05;9.10;;;4.07;;
77191;SDS011;66172;48.526;8.078;2023-06-14T13:52:31;7.28;;;3.88;;
77191;SDS011;66172;48.526;8.078;2023-06-14T13:54:57;12.27;;;3.78;;
77191;SDS011;66172;48.526;8.078;2023-06-14T13:57:23;10.63;;;3.80;;
77191;SDS011;66172;48.526;8.078;2023-06-14T13:59:49;11.07;;;4.15;;
77191;SDS011;66172;48.526;8.078;2023-06-14T14:02:15;16.50;;;4.55;;
77191;SDS011;66172;48.526;8.078;2023-06-14T14:04:41;5.95;;;3.53;;
77191;SDS011;66172;48.526;8.078;2023-06-14T14:07:07;8.48;;;3.58;;
77191;SDS011;66172;48.526;8.078;2023-06-14T14:09:33;7.87;;;3.87;;
77191;SDS011;66172;48.526;8.078;2023-06-14T14:12:00;7.28;;;3.70;;
77191;SDS011;66172;48.526;8.078;2023-06-14T14:14:27;7.65;;;3.75;;
77191;SDS011;66172;48.526;8.078;2023-06-14T14:16:53;9.23;;;3.95;;
77191;SDS011;66172;48.526;8.078;2023-06-14T14:19:23;8.98;;;3.83;;
77191;SDS011;66172;48.526;8.078;2023-06-14T14:21:49;6.63;;;3.70;;
77191;SDS011;66172;48.526;8.078;2023-06-14T14:24:15;9.10;;;4.18;;
77191;SDS011;66172;48.526;8.078;2023-06-14T14:26:41;7.70;;;3.90;;
77191;SDS011;66172;48.526;8.078;2023-06-14T14:29:08;8.50;;;4.00;;
77191;SDS011;66172;48.526;8.078;2023-06-14T14:31:34;10.00;;;3.92;;
77191;SDS011;66172;48.526;8.078;2023-06-14T14:34:00;7.27;;;3.60;;
77191;SDS011;66172;48.526;8.078;2023-06-14T14:36:26;7.72;;;4.05;;
77191;SDS011;66172;48.526;8.078;2023-06-14T14:38:52;13.63;;;4.32;;
77191;SDS011;66172;48.526;8.078;2023-06-14T14:41:18;11.27;;;4.30;;
77191;SDS011;66172;48.526;8.078;2023-06-14T14:43:44;8.03;;;3.70;;
77191;SDS011;66172;48.526;8.078;2023-06-14T14:46:10;7.07;;;3.95;;
77191;SDS011;66172;48.526;8.078;2023-06-14T14:48:36;7.20;;;4.25;;
77191;SDS011;66172;48.526;8.078;2023-06-14T14:51:01;8.80;;;4.37;;
77191;SDS011;66172;48.526;8.078;2023-06-14T14:53:27;8.00;;;3.90;;
77191;SDS011;66172;48.526;8.078;2023-06-14T14:55:53;8.02;;;4.28;;
77191;SDS011;66172;48.526;8.078;2023-06-14T14:58:19;11.40;;;4.30;;
77191;SDS011;66172;48.526;8.078;2023-06-14T15:00:45;7.73;;;4.00;;
77191;SDS011;66172;48.526;8.078;2023-06-14T15:03:12;9.33;;;4.47;;
77191;SDS011;66172;48.526;8.078;2023-06-14T15:05:38;12.07;;;4.10;;
77191;SDS011;66172;48.526;8.078;2023-06-14T15:08:04;7.90;;;4.28;;